Time;durP1;ratioP1;P1;durP2;ratioP2;P2;SDS_P1;SDS_P2;PMS_P1;PMS_P2;Temp;Humidity;BMP_temperature;BMP_pressure;BME280_temperature;BME280_humidity;BME280_pressure;Samples;Min_cycle;Max_cycle;Signal;HPM_P1;HPM_P2
2022/08/04 00:02:15;;;;;;;1.98;1.20;;;;;;;;;;4984745;23;20141;-63
2022/08/04 00:04:45;;;;;;;2.15;1.20;;;;;;;;;;4966029;28;20184;-58
2022/08/04 00:07:14;;;;;;;2.83;1.42;;;;;;;;;;4975272;28;20054;-61
2022/08/04 00:09:44;;;;;;;3.25;1.38;;;;;;;;;;4987383;28;20092;-61
2022/08/04 00:12:11;;;;;;;3.78;1.30;;;;;;;;;;4981802;28;20058;-60
2022/08/04 00:14:45;;;;;;;4.63;1.45;;;;;;;;;;4987383;28;20066;-58
2022/08/04 00:17:12;;;;;;;4.95;1.35;;;;;;;;;;4982757;28;20120;-62
2022/08/04 00:19:41;;;;;;;7.55;1.10;;;;;;;;;;4986811;28;20061;-62
2022/08/04 00:22:09;;;;;;;4.15;1.50;;;;;;;;;;4982025;28;20053;-60
2022/08/04 00:24:38;;;;;;;3.70;1.60;;;;;;;;;;4973820;28;20141;-62
2022/08/04 00:27:07;;;;;;;2.85;1.23;;;;;;;;;;4970630;28;20129;-60
2022/08/04 00:29:34;;;;;;;4.82;1.83;;;;;;;;;;4976671;28;20054;-61
2022/08/04 00:32:02;;;;;;;7.47;1.73;;;;;;;;;;4991774;28;20068;-58
2022/08/04 00:34:29;;;;;;;3.83;1.30;;;;;;;;;;4979922;28;20082;-61
2022/08/04 00:36:56;;;;;;;7.53;2.97;;;;;;;;;;4991092;28;20132;-63
2022/08/04 00:39:23;;;;;;;6.67;1.70;;;;;;;;;;4987318;28;20312;-62
2022/08/04 00:41:55;;;;;;;4.05;1.65;;;;;;;;;;5004825;28;20047;-62
2022/08/04 00:44:30;;;;;;;4.93;1.83;;;;;;;;;;4990853;28;20062;-63
2022/08/04 00:47:07;;;;;;;4.03;1.55;;;;;;;;;;4984601;28;20057;-62
2022/08/04 00:49:46;;;;;;;5.90;1.83;;;;;;;;;;4991180;28;20061;-61
2022/08/04 00:52:18;;;;;;;8.57;1.67;;;;;;;;;;4984720;28;20149;-62
2022/08/04 00:54:55;;;;;;;4.30;1.60;;;;;;;;;;4990063;28;20072;-61
2022/08/04 00:57:28;;;;;;;5.20;1.73;;;;;;;;;;4977003;28;20062;-59
2022/08/04 01:00:03;;;;;;;2.80;1.50;;;;;;;;;;4991085;28;20069;-62
2022/08/04 01:02:35;;;;;;;3.58;1.60;;;;;;;;;;4984795;28;20065;-61
2022/08/04 01:05:03;;;;;;;3.92;1.45;;;;;;;;;;4990832;28;20054;-63
2022/08/04 01:07:30;;;;;;;;;;;;;;;;;;4987843;28;20055;-60
2022/08/04 01:10:02;;;;;;;3.53;1.67;;;;;;;;;;5004578;28;19925;-59
2022/08/04 01:12:47;;;;;;;4.13;1.67;;;;;;;;;;4988801;28;20050;-62
2022/08/04 01:15:18;;;;;;;2.20;1.33;;;;;;;;;;4984128;28;20057;-62
2022/08/04 01:17:50;;;;;;;6.35;1.45;;;;;;;;;;4990191;28;20058;-61
2022/08/04 01:20:20;;;;;;;6.63;1.80;;;;;;;;;;4984072;28;20054;-59
2022/08/04 01:23:10;;;;;;;8.77;1.90;;;;;;;;;;4990238;28;20085;-60
2022/08/04 01:25:53;;;;;;;3.35;1.45;;;;;;;;;;4984582;28;20058;-60
2022/08/04 01:28:27;;;;;;;3.00;1.50;;;;;;;;;;4986857;28;20054;-62
2022/08/04 01:30:57;;;;;;;3.97;1.73;;;;;;;;;;4975801;28;20054;-58
2022/08/04 01:33:26;;;;;;;6.50;2.38;;;;;;;;;;4970618;28;20059;-62
2022/08/04 01:35:54;;;;;;;5.75;1.77;;;;;;;;;;4966571;28;20059;-62
2022/08/04 01:38:24;;;;;;;5.60;1.85;;;;;;;;;;4971184;28;20065;-62
2022/08/04 01:40:52;;;;;;;2.72;1.67;;;;;;;;;;4974848;28;20058;-62
2022/08/04 01:43:20;;;;;;;2.60;1.25;;;;;;;;;;4989120;28;20142;-63
2022/08/04 01:45:49;;;;;;;7.00;1.98;;;;;;;;;;4985015;28;20058;-62
2022/08/04 01:48:18;;;;;;;5.30;1.92;;;;;;;;;;4990458;28;20108;-61
2022/08/04 01:50:45;;;;;;;3.80;1.48;;;;;;;;;;4983417;28;20050;-61
2022/08/04 01:53:12;;;;;;;4.28;1.67;;;;;;;;;;4989479;28;20153;-60
2022/08/04 01:55:40;;;;;;;3.65;1.52;;;;;;;;;;4984583;28;20113;-62
2022/08/04 01:58:07;;;;;;;2.28;1.20;;;;;;;;;;4989640;28;20062;-63
2022/08/04 02:00:34;;;;;;;2.38;1.27;;;;;;;;;;4983887;28;20058;-59
2022/08/04 02:03:01;;;;;;;2.85;1.40;;;;;;;;;;4989864;28;20058;-63
2022/08/04 02:05:29;;;;;;;4.00;1.63;;;;;;;;;;4981831;28;20109;-63
2022/08/04 02:08:07;;;;;;;3.03;1.40;;;;;;;;;;4983319;28;20085;-63
2022/08/04 02:10:43;;;;;;;2.10;1.30;;;;;;;;;;4982114;28;20061;-62
2022/08/04 02:13:17;;;;;;;3.50;1.30;;;;;;;;;;4983004;28;20058;-62
2022/08/04 02:15:51;;;;;;;3.30;1.73;;;;;;;;;;4989646;28;20054;-63
2022/08/04 02:18:21;;;;;;;6.85;2.28;;;;;;;;;;4983220;28;20085;-63
2022/08/04 02:20:54;;;;;;;3.50;1.60;;;;;;;;;;4988465;28;20054;-62
2022/08/04 02:23:28;;;;;;;3.63;1.73;;;;;;;;;;4983873;28;20066;-63
2022/08/04 02:25:56;;;;;;;2.75;1.30;;;;;;;;;;4989399;28;20050;-62
2022/08/04 02:28:26;;;;;;;4.90;2.08;;;;;;;;;;4982516;28;20149;-61
2022/08/04 02:31:02;;;;;;;3.60;1.60;;;;;;;;;;4988808;28;20066;-60
2022/08/04 02:33:33;;;;;;;3.15;1.40;;;;;;;;;;4982059;28;20054;-62
2022/08/04 02:36:04;;;;;;;2.63;1.25;;;;;;;;;;4986252;28;20050;-62
2022/08/04 02:38:36;;;;;;;2.95;1.30;;;;;;;;;;4988175;28;20046;-63
2022/08/04 02:41:04;;;;;;;5.38;1.70;;;;;;;;;;4982621;28;20050;-58
2022/08/04 02:43:31;;;;;;;4.28;1.70;;;;;;;;;;4988832;28;20065;-61
2022/08/04 02:45:59;;;;;;;5.47;1.50;;;;;;;;;;4983466;28;20062;-62
2022/08/04 02:48:26;;;;;;;11.52;2.90;;;;;;;;;;4989078;28;20065;-62
2022/08/04 02:50:54;;;;;;;8.27;3.17;;;;;;;;;;4982368;28;21408;-63
2022/08/04 02:53:23;;;;;;;6.60;1.65;;;;;;;;;;4988009;28;20058;-62
2022/08/04 02:55:52;;;;;;;6.90;2.08;;;;;;;;;;4985780;28;20061;-62
2022/08/04 02:58:20;;;;;;;3.28;1.67;;;;;;;;;;5001713;28;20050;-63
2022/08/04 03:00:48;;;;;;;4.47;1.45;;;;;;;;;;4988574;28;20050;-62
2022/08/04 03:03:20;;;;;;;2.65;1.38;;;;;;;;;;4981920;28;20042;-63
2022/08/04 03:05:56;;;;;;;3.50;1.50;;;;;;;;;;4981215;28;20050;-63
2022/08/04 03:08:30;;;;;;;4.97;1.60;;;;;;;;;;4979714;28;20117;-63
2022/08/04 03:11:14;;;;;;;4.15;1.70;;;;;;;;;;5003403;28;20054;-63
2022/08/04 03:13:57;;;;;;;2.15;1.30;;;;;;;;;;4999629;28;20057;-63
2022/08/04 03:16:33;;;;;;;4.80;1.88;;;;;;;;;;4989015;28;20062;-63
2022/08/04 03:19:26;;;;;;;1.73;1.30;;;;;;;;;;4980988;28;20112;-63
2022/08/04 03:22:08;;;;;;;2.92;1.48;;;;;;;;;;4987340;28;20054;-61
2022/08/04 03:24:54;;;;;;;7.38;2.70;;;;;;;;;;4980555;28;20132;-62
2022/08/04 03:27:38;;;;;;;2.67;1.65;;;;;;;;;;4987764;28;20140;-62
2022/08/04 03:30:06;;;;;;;5.13;1.45;;;;;;;;;;4981582;28;20065;-62
2022/08/04 03:32:57;;;;;;;2.65;1.48;;;;;;;;;;4979437;28;20057;-62
2022/08/04 03:35:36;;;;;;;4.30;1.70;;;;;;;;;;4983613;28;20054;-61
2022/08/04 03:38:10;;;;;;;4.63;1.67;;;;;;;;;;4984818;28;20054;-63
2022/08/04 03:40:54;;;;;;;3.15;1.63;;;;;;;;;;4969092;28;20081;-61
2022/08/04 03:43:42;;;;;;;3.25;1.52;;;;;;;;;;5003280;28;20058;-63
2022/08/04 03:46:31;;;;;;;4.80;1.80;;;;;;;;;;4986808;28;20054;-62
2022/08/04 03:49:16;;;;;;;3.47;1.85;;;;;;;;;;4986064;28;20061;-63
2022/08/04 03:54:55;;;;;;;3.20;1.60;;;;;;;;;;4984326;28;20054;-62
2022/08/04 03:57:47;;;;;;;3.75;1.60;;;;;;;;;;4963607;28;20108;-63
2022/08/04 04:00:15;;;;;;;4.13;1.70;;;;;;;;;;4985844;28;20074;-62
2022/08/04 04:02:53;;;;;;;3.55;1.77;;;;;;;;;;4986933;28;20059;-62
2022/08/04 04:05:35;;;;;;;6.88;2.95;;;;;;;;;;4979858;28;20046;-61
2022/08/04 04:08:17;;;;;;;5.72;1.80;;;;;;;;;;4987044;28;20058;-62
2022/08/04 04:10:49;;;;;;;4.57;1.77;;;;;;;;;;4981115;28;20062;-62
2022/08/04 04:13:34;;;;;;;3.42;1.63;;;;;;;;;;4987125;28;20065;-63
2022/08/04 04:16:14;;;;;;;3.03;1.58;;;;;;;;;;4980871;28;20054;-62
2022/08/04 04:18:58;;;;;;;4.97;1.73;;;;;;;;;;4986922;28;20050;-62
2022/08/04 04:21:36;;;;;;;14.35;2.20;;;;;;;;;;4980275;28;20050;-59
2022/08/04 04:24:20;;;;;;;2.67;1.50;;;;;;;;;;4986829;28;20050;-61
2022/08/04 04:26:52;;;;;;;5.25;1.63;;;;;;;;;;4981288;28;20046;-58
2022/08/04 04:29:29;;;;;;;5.20;1.70;;;;;;;;;;4986979;28;20053;-60
2022/08/04 04:32:08;;;;;;;8.20;2.60;;;;;;;;;;4968833;28;20074;-62
2022/08/04 04:34:40;;;;;;;4.47;1.88;;;;;;;;;;4968594;28;20086;-63
2022/08/04 04:37:17;;;;;;;4.60;1.58;;;;;;;;;;4970023;28;20115;-63
2022/08/04 04:39:51;;;;;;;3.90;1.90;;;;;;;;;;4987400;28;20058;-63
2022/08/04 04:42:25;;;;;;;3.80;1.83;;;;;;;;;;4982569;28;20097;-62
2022/08/04 04:45:12;;;;;;;6.70;1.90;;;;;;;;;;4987638;28;20061;-62
2022/08/04 04:47:45;;;;;;;3.60;1.67;;;;;;;;;;4969040;28;20058;-63
2022/08/04 04:50:15;;;;;;;4.38;1.88;;;;;;;;;;4972989;28;20061;-62
2022/08/04 04:52:47;;;;;;;5.47;2.13;;;;;;;;;;4969897;28;20062;-62
2022/08/04 04:55:17;;;;;;;4.72;2.25;;;;;;;;;;4967880;28;20117;-63
2022/08/04 04:57:45;;;;;;;8.23;2.50;;;;;;;;;;4970392;28;20063;-62
2022/08/04 05:00:12;;;;;;;12.32;3.45;;;;;;;;;;4984745;28;20046;-62
2022/08/04 05:02:56;;;;;;;5.78;2.20;;;;;;;;;;4979784;28;20051;-61
2022/08/04 05:05:47;;;;;;;5.60;2.10;;;;;;;;;;5000861;28;20090;-63
2022/08/04 05:08:27;;;;;;;4.13;1.92;;;;;;;;;;4959718;28;20050;-62
2022/08/04 05:11:04;;;;;;;7.15;2.70;;;;;;;;;;5001010;28;20088;-62
2022/08/04 05:13:36;;;;;;;6.40;2.10;;;;;;;;;;4980162;28;20058;-61
2022/08/04 05:16:07;;;;;;;6.60;2.05;;;;;;;;;;4985545;28;20058;-61
2022/08/04 05:18:36;;;;;;;6.53;2.15;;;;;;;;;;4998135;28;20068;-62
2022/08/04 05:21:08;;;;;;;5.88;2.15;;;;;;;;;;4989068;28;20079;-62
2022/08/04 05:23:41;;;;;;;6.80;2.80;;;;;;;;;;4982950;28;20061;-61
2022/08/04 05:26:11;;;;;;;3.92;1.83;;;;;;;;;;4990045;28;20054;-63
2022/08/04 05:28:39;;;;;;;4.45;2.00;;;;;;;;;;4981694;28;20054;-63
2022/08/04 05:31:13;;;;;;;12.32;2.47;;;;;;;;;;4989568;28;20046;-61
2022/08/04 05:33:47;;;;;;;8.25;2.05;;;;;;;;;;4983244;28;20050;-61
2022/08/04 05:36:16;;;;;;;4.13;1.80;;;;;;;;;;4990361;28;20054;-61
2022/08/04 05:38:46;;;;;;;4.88;1.88;;;;;;;;;;4982018;28;20057;-62
2022/08/04 05:41:13;;;;;;;4.85;1.80;;;;;;;;;;4989141;28;20054;-63
2022/08/04 05:43:43;;;;;;;5.35;2.05;;;;;;;;;;4982667;28;20217;-60
2022/08/04 05:46:12;;;;;;;6.43;2.97;;;;;;;;;;4988810;28;20050;-59
2022/08/04 05:48:38;;;;;;;10.40;3.35;;;;;;;;;;4983142;28;20064;-63
2022/08/04 05:51:05;;;;;;;5.47;1.95;;;;;;;;;;4989139;28;20062;-62
2022/08/04 05:53:32;;;;;;;6.68;2.63;;;;;;;;;;4987753;28;20054;-61
2022/08/04 05:56:01;;;;;;;8.50;2.10;;;;;;;;;;4985357;28;20058;-64
2022/08/04 05:58:29;;;;;;;4.90;2.30;;;;;;;;;;4990120;28;20055;-63
2022/08/04 06:00:57;;;;;;;7.88;2.63;;;;;;;;;;4966761;28;20144;-63
2022/08/04 06:03:24;;;;;;;5.10;1.80;;;;;;;;;;4969944;28;20061;-63
2022/08/04 06:05:51;;;;;;;6.25;2.30;;;;;;;;;;4979772;28;20050;-60
2022/08/04 06:08:19;;;;;;;13.50;3.95;;;;;;;;;;4989366;28;20130;-61
2022/08/04 06:10:48;;;;;;;11.52;2.70;;;;;;;;;;4982430;28;20062;-60
2022/08/04 06:13:17;;;;;;;12.85;4.38;;;;;;;;;;4990256;28;20062;-61
2022/08/04 06:15:51;;;;;;;14.13;4.10;;;;;;;;;;4983866;28;20100;-62
2022/08/04 06:18:18;;;;;;;8.65;3.75;;;;;;;;;;4990653;28;20034;-63
2022/08/04 06:20:47;;;;;;;11.63;4.03;;;;;;;;;;4983379;28;20078;-61
2022/08/04 06:23:16;;;;;;;17.60;6.22;;;;;;;;;;4989197;28;20137;-64
2022/08/04 06:25:44;;;;;;;13.60;5.30;;;;;;;;;;4981217;28;20043;-61
2022/08/04 06:28:11;;;;;;;10.73;4.57;;;;;;;;;;4986968;28;20065;-63
2022/08/04 06:30:42;;;;;;;11.23;4.30;;;;;;;;;;4982873;28;20165;-60
2022/08/04 06:33:23;;;;;;;12.05;4.15;;;;;;;;;;4989521;28;20086;-63
2022/08/04 06:35:54;;;;;;;6.72;3.13;;;;;;;;;;4979189;28;20050;-63
2022/08/04 06:38:21;;;;;;;9.88;3.40;;;;;;;;;;4969931;28;20122;-63
2022/08/04 06:40:48;;;;;;;11.40;3.40;;;;;;;;;;4967220;28;20058;-62
2022/08/04 06:43:15;;;;;;;10.18;3.70;;;;;;;;;;4989351;28;20317;-64
2022/08/04 06:45:44;;;;;;;8.73;3.10;;;;;;;;;;4983342;28;20099;-63
2022/08/04 06:48:13;;;;;;;7.93;3.28;;;;;;;;;;4989283;28;20065;-62
2022/08/04 06:50:40;;;;;;;12.38;4.07;;;;;;;;;;4989784;28;20042;-62
2022/08/04 06:53:07;;;;;;;12.10;3.70;;;;;;;;;;4983921;28;20124;-63
2022/08/04 06:55:34;;;;;;;9.70;3.75;;;;;;;;;;4988851;28;20145;-63
2022/08/04 06:58:02;;;;;;;11.73;4.27;;;;;;;;;;4982493;28;20060;-61
2022/08/04 07:00:29;;;;;;;11.20;4.28;;;;;;;;;;4988381;28;20062;-63
2022/08/04 07:02:59;;;;;;;13.70;4.47;;;;;;;;;;4968618;28;20054;-63
2022/08/04 07:05:27;;;;;;;11.00;3.97;;;;;;;;;;4968443;28;20059;-63
2022/08/04 07:07:55;;;;;;;10.63;3.88;;;;;;;;;;4975060;28;20051;-64
2022/08/04 07:10:22;;;;;;;14.15;4.75;;;;;;;;;;4988037;28;20054;-62
2022/08/04 07:12:49;;;;;;;8.43;3.83;;;;;;;;;;4982861;28;20058;-62
2022/08/04 07:15:19;;;;;;;15.93;4.90;;;;;;;;;;4987936;28;20058;-64
2022/08/04 07:17:46;;;;;;;7.38;3.65;;;;;;;;;;4975707;28;20114;-60
2022/08/04 07:20:14;;;;;;;8.70;3.33;;;;;;;;;;4965855;28;20062;-62
2022/08/04 07:22:43;;;;;;;11.13;4.65;;;;;;;;;;4965044;28;20050;-62
2022/08/04 07:25:11;;;;;;;14.25;5.55;;;;;;;;;;4969313;28;20054;-64
2022/08/04 07:27:38;;;;;;;12.05;4.10;;;;;;;;;;4966482;28;20132;-64
2022/08/04 07:30:05;;;;;;;12.10;5.72;;;;;;;;;;4987803;28;20061;-62
2022/08/04 07:32:33;;;;;;;21.08;5.43;;;;;;;;;;4979535;28;20054;-60
2022/08/04 07:35:02;;;;;;;13.80;4.93;;;;;;;;;;4965771;28;20046;-62
2022/08/04 07:37:30;;;;;;;6.50;2.88;;;;;;;;;;4967619;28;20117;-63
2022/08/04 07:39:57;;;;;;;11.43;4.30;;;;;;;;;;4981088;28;20093;-63
2022/08/04 07:42:24;;;;;;;14.30;6.25;;;;;;;;;;4987221;28;20185;-63
2022/08/04 07:44:51;;;;;;;9.00;2.65;;;;;;;;;;4982497;28;20050;-63
2022/08/04 07:47:18;;;;;;;13.70;4.40;;;;;;;;;;4988573;28;20116;-61
2022/08/04 07:49:45;;;;;;;12.35;5.07;;;;;;;;;;4974969;28;20046;-60
2022/08/04 07:52:11;;;;;;;10.05;3.28;;;;;;;;;;5003561;28;20081;-62
2022/08/04 07:54:40;;;;;;;12.73;4.43;;;;;;;;;;4986967;28;20101;-64
2022/08/04 07:57:07;;;;;;;10.80;4.90;;;;;;;;;;4985144;28;20086;-61
2022/08/04 07:59:35;;;;;;;7.28;2.72;;;;;;;;;;4964149;28;20050;-63
2022/08/04 08:02:02;;;;;;;9.95;4.13;;;;;;;;;;4968047;28;20062;-61
2022/08/04 08:04:30;;;;;;;15.27;4.50;;;;;;;;;;4969705;28;20157;-64
2022/08/04 08:06:57;;;;;;;9.07;3.65;;;;;;;;;;4985880;28;20059;-63
2022/08/04 08:09:23;;;;;;;5.30;2.22;;;;;;;;;;4977327;28;20057;-63
2022/08/04 08:11:52;;;;;;;7.35;2.40;;;;;;;;;;4967938;28;20087;-63
2022/08/04 08:14:19;;;;;;;12.40;3.83;;;;;;;;;;4963666;28;20047;-64
2022/08/04 08:16:46;;;;;;;9.55;3.70;;;;;;;;;;4968439;28;20102;-64
2022/08/04 08:19:13;;;;;;;10.50;3.67;;;;;;;;;;4965138;28;20080;-60
2022/08/04 08:21:40;;;;;;;8.60;2.53;;;;;;;;;;5002537;28;20057;-61
2022/08/04 08:24:08;;;;;;;8.63;4.25;;;;;;;;;;4987805;28;20058;-59
2022/08/04 08:26:34;;;;;;;6.95;3.38;;;;;;;;;;4966845;28;20120;-64
2022/08/04 08:29:03;;;;;;;15.48;3.15;;;;;;;;;;4969674;28;20150;-63
2022/08/04 08:31:30;;;;;;;7.20;2.88;;;;;;;;;;4977122;28;20077;-63
2022/08/04 08:33:58;;;;;;;6.28;2.80;;;;;;;;;;4978193;28;20114;-62
2022/08/04 08:36:28;;;;;;;5.60;2.63;;;;;;;;;;4975402;28;20054;-63
2022/08/04 08:38:59;;;;;;;6.95;2.65;;;;;;;;;;4987677;28;20058;-63
2022/08/04 08:41:44;;;;;;;12.77;3.28;;;;;;;;;;4971088;28;20043;-64
2022/08/04 08:44:26;;;;;;;9.18;2.50;;;;;;;;;;4967276;28;20054;-62
2022/08/04 08:47:01;;;;;;;11.27;2.90;;;;;;;;;;4963205;28;20055;-62
2022/08/04 08:49:45;;;;;;;6.53;2.60;;;;;;;;;;4967782;28;20050;-63
2022/08/04 08:52:21;;;;;;;5.38;2.08;;;;;;;;;;4954206;28;20054;-61
2022/08/04 08:54:54;;;;;;;9.23;2.13;;;;;;;;;;4971112;28;20059;-61
2022/08/04 08:57:33;;;;;;;4.50;1.80;;;;;;;;;;4967401;28;20113;-63
2022/08/04 09:00:06;;;;;;;4.13;1.90;;;;;;;;;;4972797;28;20051;-60
2022/08/04 09:02:53;;;;;;;9.15;1.77;;;;;;;;;;4980887;28;20172;-63
2022/08/04 09:05:23;;;;;;;10.97;2.20;;;;;;;;;;4992449;23;20076;-62
2022/08/04 09:07:58;;;;;;;7.70;1.90;;;;;;;;;;4985283;28;20061;-61
2022/08/04 09:10:27;;;;;;;5.80;2.03;;;;;;;;;;5007635;28;20064;-62
2022/08/04 09:12:57;;;;;;;6.38;1.80;;;;;;;;;;4975516;28;20058;-59
2022/08/04 09:15:33;;;;;;;5.22;1.80;;;;;;;;;;4975604;28;20058;-62
2022/08/04 09:18:03;;;;;;;11.18;1.92;;;;;;;;;;4975192;28;20069;-61
2022/08/04 09:20:31;;;;;;;8.85;1.75;;;;;;;;;;4990621;28;20062;-59
2022/08/04 09:23:04;;;;;;;5.07;1.80;;;;;;;;;;4993246;28;20077;-59
2022/08/04 09:25:36;;;;;;;4.65;1.60;;;;;;;;;;4993619;28;20054;-58
2022/08/04 09:28:05;;;;;;;12.98;1.95;;;;;;;;;;4995024;28;20046;-58
2022/08/04 09:30:38;;;;;;;6.43;1.60;;;;;;;;;;4992541;28;20144;-57
2022/08/04 09:33:10;;;;;;;9.05;1.55;;;;;;;;;;4992704;28;20049;-58
2022/08/04 09:35:48;;;;;;;4.40;1.65;;;;;;;;;;4994708;28;20054;-61
2022/08/04 09:38:15;;;;;;;;;;;;;;;;;;4993862;28;20052;-58
2022/08/04 09:40:46;;;;;;;3.47;1.45;;;;;;;;;;4994806;28;19925;-57
2022/08/04 09:43:17;;;;;;;5.10;1.73;;;;;;;;;;4993749;28;20148;-58
2022/08/04 09:45:50;;;;;;;6.57;2.33;;;;;;;;;;4994127;28;20049;-61
2022/08/04 09:48:22;;;;;;;8.68;1.70;;;;;;;;;;4993555;28;20054;-58
2022/08/04 09:50:56;;;;;;;12.10;1.90;;;;;;;;;;4993648;28;20061;-60
2022/08/04 09:53:30;;;;;;;9.23;1.75;;;;;;;;;;4992854;28;20057;-61
2022/08/04 09:56:03;;;;;;;8.18;1.70;;;;;;;;;;4983319;28;20128;-58
2022/08/04 09:58:40;;;;;;;5.85;1.58;;;;;;;;;;4992444;28;20054;-60
2022/08/04 10:08:56;;;;;;;12.48;1.67;;;;;;;;;;4980185;28;20042;-57
2022/08/04 10:11:27;;;;;;;4.75;1.50;;;;;;;;;;5006167;28;20054;-57
2022/08/04 10:13:58;;;;;;;4.90;1.73;;;;;;;;;;5000983;28;20070;-57
2022/08/04 10:16:35;;;;;;;3.55;1.30;;;;;;;;;;4998772;28;20117;-63
2022/08/04 10:19:07;;;;;;;4.70;1.17;;;;;;;;;;4986086;28;20064;-59
2022/08/04 10:21:38;;;;;;;5.78;1.48;;;;;;;;;;5009918;28;20054;-61
2022/08/04 10:24:14;;;;;;;6.57;1.65;;;;;;;;;;5004246;28;20058;-63
2022/08/04 10:26:46;;;;;;;7.07;1.50;;;;;;;;;;5008694;28;20054;-64
2022/08/04 10:29:15;;;;;;;11.27;2.85;;;;;;;;;;4980939;28;20205;-63
2022/08/04 10:31:44;;;;;;;9.90;1.95;;;;;;;;;;4981095;28;20051;-62
2022/08/04 10:34:13;;;;;;;6.13;1.60;;;;;;;;;;4993085;28;20050;-64
2022/08/04 10:36:44;;;;;;;16.15;3.40;;;;;;;;;;4982477;28;20068;-64
2022/08/04 10:39:15;;;;;;;19.70;7.80;;;;;;;;;;5005283;28;20136;-62
2022/08/04 10:41:46;;;;;;;9.73;2.05;;;;;;;;;;4983484;28;20050;-60
2022/08/04 10:44:17;;;;;;;11.18;1.83;;;;;;;;;;4999845;28;20046;-63
2022/08/04 10:46:47;;;;;;;7.60;1.70;;;;;;;;;;4988496;28;20060;-62
2022/08/04 10:49:16;;;;;;;6.18;2.85;;;;;;;;;;5026364;28;20061;-63
2022/08/04 10:51:45;;;;;;;6.38;1.88;;;;;;;;;;4994459;28;20065;-63
2022/08/04 10:54:14;;;;;;;5.80;2.20;;;;;;;;;;4984027;28;20058;-64
2022/08/04 10:56:44;;;;;;;7.68;1.80;;;;;;;;;;4994786;28;20056;-65
2022/08/04 10:59:13;;;;;;;5.53;2.03;;;;;;;;;;4983597;28;20058;-64
2022/08/04 11:01:41;;;;;;;5.57;1.77;;;;;;;;;;5001913;28;20041;-62
2022/08/04 11:04:16;;;;;;;9.40;1.80;;;;;;;;;;4986189;28;20115;-64
2022/08/04 11:06:43;;;;;;;8.38;1.75;;;;;;;;;;4993822;28;20112;-63
2022/08/04 11:09:10;;;;;;;8.98;2.22;;;;;;;;;;4989403;28;20050;-64
2022/08/04 11:11:39;;;;;;;5.72;1.52;;;;;;;;;;4998376;28;20109;-64
2022/08/04 11:14:10;;;;;;;4.03;1.50;;;;;;;;;;5006017;28;20058;-63
2022/08/04 11:16:41;;;;;;;5.05;1.70;;;;;;;;;;4981105;28;20061;-63
2022/08/04 11:19:15;;;;;;;5.55;1.50;;;;;;;;;;4997453;28;20144;-63
2022/08/04 11:21:43;;;;;;;5.40;1.65;;;;;;;;;;4988786;28;20058;-64
2022/08/04 11:24:16;;;;;;;5.57;1.38;;;;;;;;;;4996516;28;20057;-65
2022/08/04 11:26:45;;;;;;;4.30;1.50;;;;;;;;;;4987754;28;20054;-65
2022/08/04 11:29:24;;;;;;;3.17;1.35;;;;;;;;;;4996877;28;20065;-64
2022/08/04 11:31:51;;;;;;;5.82;1.80;;;;;;;;;;4990359;28;20053;-62
2022/08/04 11:34:22;;;;;;;3.05;1.33;;;;;;;;;;4999715;28;20050;-66
2022/08/04 11:36:52;;;;;;;3.50;1.33;;;;;;;;;;4988978;28;20050;-64
2022/08/04 11:39:28;;;;;;;4.95;1.65;;;;;;;;;;5005124;28;20049;-65
2022/08/04 11:41:57;;;;;;;4.28;1.17;;;;;;;;;;4987336;28;20050;-66
2022/08/04 11:44:28;;;;;;;5.82;1.52;;;;;;;;;;4996743;28;20064;-62
2022/08/04 11:46:56;;;;;;;3.15;1.27;;;;;;;;;;4982780;28;20045;-65
2022/08/04 11:49:26;;;;;;;3.67;1.40;;;;;;;;;;4997396;28;20057;-66
2022/08/04 11:51:53;;;;;;;4.32;1.60;;;;;;;;;;5001536;28;20096;-65
2022/08/04 11:54:21;;;;;;;6.47;1.60;;;;;;;;;;4997471;28;20144;-66
2022/08/04 11:56:50;;;;;;;3.55;1.42;;;;;;;;;;4986658;28;20052;-64
2022/08/04 11:59:17;;;;;;;3.78;1.20;;;;;;;;;;4996901;28;20093;-66
2022/08/04 12:01:53;;;;;;;7.03;1.42;;;;;;;;;;4991344;28;20074;-65
2022/08/04 12:04:25;;;;;;;4.43;1.42;;;;;;;;;;4995551;28;20058;-64
2022/08/04 12:06:55;;;;;;;6.13;1.70;;;;;;;;;;5024761;28;20062;-65
2022/08/04 12:09:28;;;;;;;9.52;1.73;;;;;;;;;;4996006;28;20049;-64
2022/08/04 12:11:59;;;;;;;4.55;1.63;;;;;;;;;;5031016;28;20057;-64
2022/08/04 12:14:29;;;;;;;6.38;1.73;;;;;;;;;;4993663;28;20055;-64
2022/08/04 12:17:01;;;;;;;11.00;2.20;;;;;;;;;;4992514;28;20069;-63
2022/08/04 12:19:30;;;;;;;4.47;1.52;;;;;;;;;;4999745;28;20049;-62
2022/08/04 12:21:58;;;;;;;3.75;1.60;;;;;;;;;;4996760;28;20136;-61
2022/08/04 12:24:25;;;;;;;;;;;;;;;;;;4989552;28;20050;-66
2022/08/04 12:26:53;;;;;;;3.10;1.23;;;;;;;;;;4996187;28;19925;-64
2022/08/04 12:29:22;;;;;;;5.25;1.70;;;;;;;;;;5024958;28;20082;-64
2022/08/04 12:31:51;;;;;;;7.68;2.65;;;;;;;;;;5030211;28;20072;-65
2022/08/04 12:34:25;;;;;;;6.15;2.05;;;;;;;;;;4991903;28;20100;-66
2022/08/04 12:36:55;;;;;;;5.45;1.83;;;;;;;;;;5010469;28;20061;-65
2022/08/04 12:39:22;;;;;;;6.18;1.92;;;;;;;;;;5021974;28;20061;-64
2022/08/04 12:41:53;;;;;;;4.75;1.35;;;;;;;;;;5025072;28;20049;-64
2022/08/04 12:44:21;;;;;;;4.00;1.35;;;;;;;;;;4992395;28;20042;-63
2022/08/04 12:46:48;;;;;;;4.28;1.40;;;;;;;;;;4998848;28;20058;-65
2022/08/04 12:49:16;;;;;;;2.93;1.30;;;;;;;;;;4991905;28;20054;-64
2022/08/04 12:51:44;;;;;;;7.18;2.15;;;;;;;;;;4996955;28;20050;-65
2022/08/04 12:54:12;;;;;;;2.90;1.33;;;;;;;;;;4992758;28;20053;-64
2022/08/04 12:56:39;;;;;;;2.93;1.10;;;;;;;;;;4997332;28;20289;-64
2022/08/04 12:59:07;;;;;;;3.77;1.40;;;;;;;;;;4985737;28;20081;-62
2022/08/04 13:01:34;;;;;;;6.93;1.77;;;;;;;;;;4995236;28;20149;-65
2022/08/04 13:04:02;;;;;;;7.13;1.90;;;;;;;;;;4997604;28;20069;-65
2022/08/04 13:06:31;;;;;;;7.13;1.58;;;;;;;;;;5009155;28;20061;-65
2022/08/04 13:09:08;;;;;;;5.10;1.90;;;;;;;;;;5000614;28;20057;-64
2022/08/04 13:11:37;;;;;;;11.63;2.27;;;;;;;;;;4992740;28;20050;-65
2022/08/04 13:14:04;;;;;;;4.25;1.60;;;;;;;;;;4998023;28;20300;-64
2022/08/04 13:16:30;;;;;;;3.22;1.30;;;;;;;;;;4989274;28;20049;-65
2022/08/04 13:18:57;;;;;;;4.13;1.58;;;;;;;;;;4998744;28;20060;-64
2022/08/04 13:21:25;;;;;;;2.78;1.17;;;;;;;;;;4990556;28;20054;-67
2022/08/04 13:23:54;;;;;;;3.33;1.33;;;;;;;;;;4999108;28;20065;-64
2022/08/04 13:26:22;;;;;;;5.22;2.05;;;;;;;;;;5002315;28;20080;-62
2022/08/04 13:28:52;;;;;;;5.00;1.50;;;;;;;;;;4998048;28;20058;-65
2022/08/04 13:31:19;;;;;;;6.13;1.55;;;;;;;;;;4993380;28;20068;-64
2022/08/04 13:33:48;;;;;;;6.37;1.77;;;;;;;;;;4996843;28;20070;-65
2022/08/04 13:36:16;;;;;;;6.80;1.90;;;;;;;;;;4990099;28;20303;-63
2022/08/04 13:38:48;;;;;;;4.45;1.70;;;;;;;;;;4998023;28;20054;-65
2022/08/04 13:41:18;;;;;;;5.90;1.50;;;;;;;;;;4989770;28;20069;-65
2022/08/04 13:43:50;;;;;;;6.35;1.67;;;;;;;;;;4998819;28;20077;-64
2022/08/04 13:46:18;;;;;;;3.55;1.25;;;;;;;;;;4987929;28;20050;-63
2022/08/04 13:48:46;;;;;;;6.95;2.30;;;;;;;;;;4996108;28;20064;-63
2022/08/04 13:51:17;;;;;;;5.90;2.13;;;;;;;;;;4993040;28;20062;-65
2022/08/04 13:53:43;;;;;;;8.02;1.60;;;;;;;;;;4993982;28;20073;-66
2022/08/04 13:56:12;;;;;;;5.75;1.98;;;;;;;;;;4992625;28;20061;-65
2022/08/04 13:58:41;;;;;;;7.30;1.77;;;;;;;;;;4994971;28;20050;-64
2022/08/04 14:01:10;;;;;;;5.63;1.70;;;;;;;;;;4997448;28;20050;-65
2022/08/04 14:03:38;;;;;;;7.10;1.88;;;;;;;;;;4989282;28;20054;-64
2022/08/04 14:06:05;;;;;;;;;;;;;;;;;;4999536;28;20062;-65
2022/08/04 14:08:32;;;;;;;6.30;1.33;;;;;;;;;;4990680;28;20107;-65
2022/08/04 14:10:59;;;;;;;6.75;1.45;;;;;;;;;;4996521;28;20077;-65
2022/08/04 14:13:29;;;;;;;3.33;1.15;;;;;;;;;;4989741;28;20054;-65
2022/08/04 14:15:59;;;;;;;4.03;1.50;;;;;;;;;;5008118;28;20053;-64
2022/08/04 14:18:28;;;;;;;7.22;1.98;;;;;;;;;;4992366;28;20060;-65
2022/08/04 14:20:58;;;;;;;7.43;1.42;;;;;;;;;;4996225;28;20050;-63
2022/08/04 14:23:25;;;;;;;3.85;1.20;;;;;;;;;;4993054;28;20061;-63
2022/08/04 14:25:52;;;;;;;1.40;1.02;;;;;;;;;;4985244;28;20065;-64
2022/08/04 14:28:26;;;;;;;4.00;1.50;;;;;;;;;;4987274;28;20046;-64
2022/08/04 14:31:08;;;;;;;4.20;1.33;;;;;;;;;;5029127;28;20100;-62
2022/08/04 14:33:38;;;;;;;4.70;1.30;;;;;;;;;;5022328;28;20119;-63
2022/08/04 14:36:08;;;;;;;4.05;1.15;;;;;;;;;;4995577;28;20053;-62
2022/08/04 14:38:42;;;;;;;2.50;1.08;;;;;;;;;;4985904;28;20061;-65
2022/08/04 14:41:08;;;;;;;2.35;1.02;;;;;;;;;;4998322;28;20049;-64
2022/08/04 14:43:41;;;;;;;6.97;1.95;;;;;;;;;;4993876;28;20046;-64
2022/08/04 14:46:07;;;;;;;2.45;1.20;;;;;;;;;;4995995;28;20060;-64
2022/08/04 14:48:34;;;;;;;2.80;1.13;;;;;;;;;;4992261;28;20057;-65
2022/08/04 14:51:02;;;;;;;4.18;1.50;;;;;;;;;;4997100;28;20061;-62
2022/08/04 14:53:29;;;;;;;5.07;1.20;;;;;;;;;;4990712;28;20068;-64
2022/08/04 14:55:57;;;;;;;5.03;1.67;;;;;;;;;;5000465;28;20068;-63
2022/08/04 14:58:25;;;;;;;3.83;1.42;;;;;;;;;;4999522;28;20053;-64
2022/08/04 15:00:53;;;;;;;8.65;1.95;;;;;;;;;;4996842;28;20057;-60
2022/08/04 15:03:21;;;;;;;5.00;1.20;;;;;;;;;;4999052;28;20054;-64
2022/08/04 15:05:48;;;;;;;3.95;1.50;;;;;;;;;;4977089;28;20070;-64
2022/08/04 15:08:16;;;;;;;3.10;1.40;;;;;;;;;;5006481;28;20065;-64
2022/08/04 15:10:44;;;;;;;8.55;1.50;;;;;;;;;;4996939;28;20058;-65
2022/08/04 15:13:13;;;;;;;12.18;1.60;;;;;;;;;;4993612;28;20179;-63
2022/08/04 15:15:40;;;;;;;2.72;1.23;;;;;;;;;;4987031;28;20046;-64
2022/08/04 15:18:08;;;;;;;2.03;1.08;;;;;;;;;;4997366;28;20049;-63